sensor_id;sensor_type;location;lat;lon;timestamp;P1;durP1;ratioP1;P2;durP2;ratioP2
36663;SDS011;53333;51.976;20.144;2023-07-13T00:01:18;10.93;;;7.00;;
36663;SDS011;53333;51.976;20.144;2023-07-13T00:03:52;8.45;;;6.88;;
36663;SDS011;53333;51.976;20.144;2023-07-13T00:06:25;12.48;;;8.45;;
36663;SDS011;53333;51.976;20.144;2023-07-13T00:09:04;13.48;;;7.50;;
36663;SDS011;53333;51.976;20.144;2023-07-13T00:11:39;12.25;;;7.32;;
36663;SDS011;53333;51.976;20.144;2023-07-13T00:14:12;12.63;;;7.60;;
36663;SDS011;53333;51.976;20.144;2023-07-13T00:16:46;11.80;;;7.00;;
36663;SDS011;53333;51.976;20.144;2023-07-13T00:19:19;16.23;;;8.20;;
36663;SDS011;53333;51.976;20.144;2023-07-13T00:21:52;11.02;;;7.60;;
36663;SDS011;53333;51.976;20.144;2023-07-13T00:24:27;14.18;;;7.72;;
36663;SDS011;53333;51.976;20.144;2023-07-13T00:27:02;14.00;;;8.00;;
36663;SDS011;53333;51.976;20.144;2023-07-13T00:29:35;16.50;;;9.13;;
36663;SDS011;53333;51.976;20.144;2023-07-13T00:34:42;10.50;;;7.53;;
36663;SDS011;53333;51.976;20.144;2023-07-13T00:37:15;13.90;;;7.80;;
36663;SDS011;53333;51.976;20.144;2023-07-13T00:39:48;11.57;;;8.43;;
36663;SDS011;53333;51.976;20.144;2023-07-13T00:42:22;13.07;;;8.10;;
36663;SDS011;53333;51.976;20.144;2023-07-13T00:45:06;15.60;;;8.55;;
36663;SDS011;53333;51.976;20.144;2023-07-13T00:48:00;12.88;;;7.85;;
36663;SDS011;53333;51.976;20.144;2023-07-13T00:50:34;11.13;;;8.50;;
36663;SDS011;53333;51.976;20.144;2023-07-13T00:53:07;12.27;;;7.95;;
36663;SDS011;53333;51.976;20.144;2023-07-13T00:55:40;10.20;;;7.85;;
36663;SDS011;53333;51.976;20.144;2023-07-13T00:58:15;11.02;;;7.18;;
36663;SDS011;53333;51.976;20.144;2023-07-13T01:00:48;10.93;;;8.23;;
36663;SDS011;53333;51.976;20.144;2023-07-13T01:03:23;14.68;;;8.10;;
36663;SDS011;53333;51.976;20.144;2023-07-13T01:05:58;13.88;;;8.88;;
36663;SDS011;53333;51.976;20.144;2023-07-13T01:08:31;13.95;;;9.00;;
36663;SDS011;53333;51.976;20.144;2023-07-13T01:11:04;12.60;;;7.75;;
36663;SDS011;53333;51.976;20.144;2023-07-13T01:13:41;12.00;;;8.10;;
36663;SDS011;53333;51.976;20.144;2023-07-13T01:16:15;11.88;;;8.18;;
36663;SDS011;53333;51.976;20.144;2023-07-13T01:18:55;15.05;;;8.48;;
36663;SDS011;53333;51.976;20.144;2023-07-13T01:21:32;10.73;;;7.50;;
36663;SDS011;53333;51.976;20.144;2023-07-13T01:24:06;11.32;;;8.13;;
36663;SDS011;53333;51.976;20.144;2023-07-13T01:26:39;10.98;;;8.73;;
36663;SDS011;53333;51.976;20.144;2023-07-13T01:29:12;9.15;;;7.35;;
36663;SDS011;53333;51.976;20.144;2023-07-13T01:31:45;8.40;;;7.18;;
36663;SDS011;53333;51.976;20.144;2023-07-13T01:34:18;15.02;;;8.07;;
36663;SDS011;53333;51.976;20.144;2023-07-13T01:36:53;14.20;;;7.93;;
36663;SDS011;53333;51.976;20.144;2023-07-13T01:39:26;13.68;;;7.70;;
36663;SDS011;53333;51.976;20.144;2023-07-13T01:41:59;10.15;;;8.00;;
36663;SDS011;53333;51.976;20.144;2023-07-13T01:44:32;11.45;;;7.85;;
36663;SDS011;53333;51.976;20.144;2023-07-13T01:47:05;14.35;;;9.95;;
36663;SDS011;53333;51.976;20.144;2023-07-13T01:49:38;13.55;;;8.40;;
36663;SDS011;53333;51.976;20.144;2023-07-13T01:52:13;11.13;;;8.02;;
36663;SDS011;53333;51.976;20.144;2023-07-13T01:54:46;13.15;;;8.52;;
36663;SDS011;53333;51.976;20.144;2023-07-13T01:57:21;13.70;;;8.48;;
36663;SDS011;53333;51.976;20.144;2023-07-13T01:59:54;10.20;;;8.40;;
36663;SDS011;53333;51.976;20.144;2023-07-13T02:02:26;14.30;;;8.57;;
36663;SDS011;53333;51.976;20.144;2023-07-13T02:05:00;14.25;;;8.55;;
36663;SDS011;53333;51.976;20.144;2023-07-13T02:10:08;12.93;;;8.45;;
36663;SDS011;53333;51.976;20.144;2023-07-13T02:12:43;11.45;;;8.55;;
36663;SDS011;53333;51.976;20.144;2023-07-13T02:15:16;13.07;;;8.98;;
36663;SDS011;53333;51.976;20.144;2023-07-13T02:17:50;11.32;;;8.38;;
36663;SDS011;53333;51.976;20.144;2023-07-13T02:20:23;16.27;;;9.25;;
36663;SDS011;53333;51.976;20.144;2023-07-13T02:22:59;12.75;;;8.95;;
36663;SDS011;53333;51.976;20.144;2023-07-13T02:25:32;15.43;;;9.55;;
36663;SDS011;53333;51.976;20.144;2023-07-13T02:28:05;13.05;;;9.63;;
36663;SDS011;53333;51.976;20.144;2023-07-13T02:30:37;12.48;;;9.45;;
36663;SDS011;53333;51.976;20.144;2023-07-13T02:33:10;15.23;;;10.10;;
36663;SDS011;53333;51.976;20.144;2023-07-13T02:35:43;16.55;;;9.95;;
36663;SDS011;53333;51.976;20.144;2023-07-13T02:38:18;12.35;;;9.38;;
36663;SDS011;53333;51.976;20.144;2023-07-13T02:40:50;12.90;;;9.10;;
36663;SDS011;53333;51.976;20.144;2023-07-13T02:43:23;16.98;;;10.25;;
36663;SDS011;53333;51.976;20.144;2023-07-13T02:45:56;16.92;;;9.55;;
36663;SDS011;53333;51.976;20.144;2023-07-13T02:48:35;11.82;;;9.20;;
36663;SDS011;53333;51.976;20.144;2023-07-13T02:51:10;14.90;;;9.65;;
36663;SDS011;53333;51.976;20.144;2023-07-13T02:53:44;22.23;;;9.98;;
36663;SDS011;53333;51.976;20.144;2023-07-13T02:56:17;15.15;;;9.50;;
36663;SDS011;53333;51.976;20.144;2023-07-13T02:58:52;16.83;;;8.63;;
36663;SDS011;53333;51.976;20.144;2023-07-13T03:01:25;18.40;;;8.88;;
36663;SDS011;53333;51.976;20.144;2023-07-13T03:03:58;16.55;;;8.93;;
36663;SDS011;53333;51.976;20.144;2023-07-13T03:06:31;22.30;;;9.52;;
36663;SDS011;53333;51.976;20.144;2023-07-13T03:09:06;13.52;;;9.13;;
36663;SDS011;53333;51.976;20.144;2023-07-13T03:11:42;19.10;;;9.55;;
36663;SDS011;53333;51.976;20.144;2023-07-13T03:14:24;21.38;;;9.98;;
36663;SDS011;53333;51.976;20.144;2023-07-13T03:16:57;13.95;;;9.52;;
36663;SDS011;53333;51.976;20.144;2023-07-13T03:19:33;18.90;;;10.10;;
36663;SDS011;53333;51.976;20.144;2023-07-13T03:22:07;21.75;;;10.48;;
36663;SDS011;53333;51.976;20.144;2023-07-13T03:24:43;21.38;;;9.40;;
36663;SDS011;53333;51.976;20.144;2023-07-13T03:27:16;19.20;;;10.90;;
36663;SDS011;53333;51.976;20.144;2023-07-13T03:29:53;14.80;;;9.57;;
36663;SDS011;53333;51.976;20.144;2023-07-13T03:32:26;15.80;;;9.80;;
36663;SDS011;53333;51.976;20.144;2023-07-13T03:34:59;20.20;;;9.88;;
36663;SDS011;53333;51.976;20.144;2023-07-13T03:37:35;24.30;;;11.15;;
36663;SDS011;53333;51.976;20.144;2023-07-13T03:40:19;18.13;;;9.75;;
36663;SDS011;53333;51.976;20.144;2023-07-13T03:42:53;23.48;;;11.18;;
36663;SDS011;53333;51.976;20.144;2023-07-13T03:47:59;17.50;;;9.95;;
36663;SDS011;53333;51.976;20.144;2023-07-13T03:50:33;18.98;;;11.52;;
36663;SDS011;53333;51.976;20.144;2023-07-13T03:53:07;16.13;;;9.63;;
36663;SDS011;53333;51.976;20.144;2023-07-13T03:55:42;16.27;;;9.85;;
36663;SDS011;53333;51.976;20.144;2023-07-13T03:58:31;14.40;;;10.52;;
36663;SDS011;53333;51.976;20.144;2023-07-13T04:01:16;14.93;;;10.02;;
36663;SDS011;53333;51.976;20.144;2023-07-13T04:03:50;24.20;;;11.07;;
36663;SDS011;53333;51.976;20.144;2023-07-13T04:06:27;16.05;;;9.48;;
36663;SDS011;53333;51.976;20.144;2023-07-13T04:09:01;16.95;;;9.45;;
36663;SDS011;53333;51.976;20.144;2023-07-13T04:11:38;16.25;;;11.18;;
36663;SDS011;53333;51.976;20.144;2023-07-13T04:14:11;15.15;;;10.48;;
36663;SDS011;53333;51.976;20.144;2023-07-13T04:16:45;15.98;;;10.23;;
36663;SDS011;53333;51.976;20.144;2023-07-13T04:19:18;15.82;;;10.85;;
36663;SDS011;53333;51.976;20.144;2023-07-13T04:21:51;13.77;;;10.20;;
36663;SDS011;53333;51.976;20.144;2023-07-13T04:24:24;17.60;;;11.35;;
36663;SDS011;53333;51.976;20.144;2023-07-13T04:29:33;16.00;;;10.52;;
36663;SDS011;53333;51.976;20.144;2023-07-13T04:32:06;20.00;;;11.55;;
36663;SDS011;53333;51.976;20.144;2023-07-13T04:34:39;19.02;;;11.82;;
36663;SDS011;53333;51.976;20.144;2023-07-13T04:37:12;20.05;;;11.85;;
36663;SDS011;53333;51.976;20.144;2023-07-13T04:39:45;20.00;;;12.02;;
36663;SDS011;53333;51.976;20.144;2023-07-13T04:42:19;17.33;;;11.63;;
36663;SDS011;53333;51.976;20.144;2023-07-13T04:44:52;23.63;;;12.00;;
36663;SDS011;53333;51.976;20.144;2023-07-13T04:47:25;19.58;;;12.27;;
36663;SDS011;53333;51.976;20.144;2023-07-13T04:49:58;27.77;;;12.55;;
36663;SDS011;53333;51.976;20.144;2023-07-13T04:52:32;25.65;;;12.15;;
36663;SDS011;53333;51.976;20.144;2023-07-13T04:55:05;21.20;;;12.20;;
36663;SDS011;53333;51.976;20.144;2023-07-13T04:57:40;25.08;;;12.75;;
36663;SDS011;53333;51.976;20.144;2023-07-13T05:00:13;21.95;;;12.57;;
36663;SDS011;53333;51.976;20.144;2023-07-13T05:02:47;26.17;;;13.27;;
36663;SDS011;53333;51.976;20.144;2023-07-13T05:05:23;20.15;;;11.38;;
36663;SDS011;53333;51.976;20.144;2023-07-13T05:08:02;15.55;;;11.73;;
36663;SDS011;53333;51.976;20.144;2023-07-13T05:10:36;17.35;;;11.68;;
36663;SDS011;53333;51.976;20.144;2023-07-13T05:13:10;14.45;;;10.85;;
36663;SDS011;53333;51.976;20.144;2023-07-13T05:15:43;20.70;;;11.20;;
36663;SDS011;53333;51.976;20.144;2023-07-13T05:18:16;19.58;;;10.68;;
36663;SDS011;53333;51.976;20.144;2023-07-13T05:20:54;17.75;;;10.02;;
36663;SDS011;53333;51.976;20.144;2023-07-13T05:23:29;18.27;;;11.15;;
36663;SDS011;53333;51.976;20.144;2023-07-13T05:26:02;22.70;;;11.38;;
36663;SDS011;53333;51.976;20.144;2023-07-13T05:28:41;21.30;;;10.13;;
36663;SDS011;53333;51.976;20.144;2023-07-13T05:31:14;17.75;;;10.48;;
36663;SDS011;53333;51.976;20.144;2023-07-13T05:33:47;15.35;;;10.18;;
36663;SDS011;53333;51.976;20.144;2023-07-13T05:36:21;16.55;;;9.82;;
36663;SDS011;53333;51.976;20.144;2023-07-13T05:38:53;18.38;;;10.45;;
36663;SDS011;53333;51.976;20.144;2023-07-13T05:41:26;19.58;;;10.93;;
36663;SDS011;53333;51.976;20.144;2023-07-13T05:44:01;24.15;;;12.10;;
36663;SDS011;53333;51.976;20.144;2023-07-13T05:46:34;20.40;;;10.55;;
36663;SDS011;53333;51.976;20.144;2023-07-13T05:49:07;15.65;;;10.63;;
36663;SDS011;53333;51.976;20.144;2023-07-13T05:51:39;25.52;;;11.35;;
36663;SDS011;53333;51.976;20.144;2023-07-13T05:54:12;16.23;;;10.40;;
36663;SDS011;53333;51.976;20.144;2023-07-13T05:56:45;14.63;;;11.10;;
36663;SDS011;53333;51.976;20.144;2023-07-13T05:59:20;18.70;;;10.25;;
36663;SDS011;53333;51.976;20.144;2023-07-13T06:01:53;19.88;;;10.27;;
36663;SDS011;53333;51.976;20.144;2023-07-13T06:04:26;25.67;;;10.00;;
36663;SDS011;53333;51.976;20.144;2023-07-13T06:06:59;23.30;;;10.32;;
36663;SDS011;53333;51.976;20.144;2023-07-13T06:09:32;18.42;;;9.98;;
36663;SDS011;53333;51.976;20.144;2023-07-13T06:12:05;16.70;;;10.45;;
36663;SDS011;53333;51.976;20.144;2023-07-13T06:14:40;16.42;;;8.52;;
36663;SDS011;53333;51.976;20.144;2023-07-13T06:17:13;13.32;;;9.52;;
36663;SDS011;53333;51.976;20.144;2023-07-13T06:22:19;19.17;;;8.87;;
36663;SDS011;53333;51.976;20.144;2023-07-13T06:24:52;16.90;;;9.30;;
36663;SDS011;53333;51.976;20.144;2023-07-13T06:27:25;10.90;;;7.90;;
36663;SDS011;53333;51.976;20.144;2023-07-13T06:30:03;18.10;;;8.75;;
36663;SDS011;53333;51.976;20.144;2023-07-13T06:32:38;13.52;;;8.15;;
36663;SDS011;53333;51.976;20.144;2023-07-13T06:35:12;17.75;;;7.72;;
36663;SDS011;53333;51.976;20.144;2023-07-13T06:37:47;12.50;;;7.90;;
36663;SDS011;53333;51.976;20.144;2023-07-13T06:40:22;12.18;;;7.10;;
36663;SDS011;53333;51.976;20.144;2023-07-13T06:42:58;12.27;;;6.13;;
36663;SDS011;53333;51.976;20.144;2023-07-13T06:45:35;13.32;;;6.40;;
36663;SDS011;53333;51.976;20.144;2023-07-13T06:48:15;15.40;;;7.28;;
36663;SDS011;53333;51.976;20.144;2023-07-13T06:50:49;16.88;;;6.70;;
36663;SDS011;53333;51.976;20.144;2023-07-13T06:53:24;13.45;;;6.72;;
36663;SDS011;53333;51.976;20.144;2023-07-13T06:55:58;10.25;;;6.80;;
36663;SDS011;53333;51.976;20.144;2023-07-13T06:58:33;14.93;;;6.70;;
36663;SDS011;53333;51.976;20.144;2023-07-13T07:01:14;24.50;;;16.33;;
36663;SDS011;53333;51.976;20.144;2023-07-13T07:03:50;6.82;;;5.30;;
36663;SDS011;53333;51.976;20.144;2023-07-13T07:06:28;8.80;;;5.75;;
36663;SDS011;53333;51.976;20.144;2023-07-13T07:09:04;10.90;;;6.00;;
36663;SDS011;53333;51.976;20.144;2023-07-13T07:11:39;11.20;;;6.18;;
36663;SDS011;53333;51.976;20.144;2023-07-13T07:14:33;11.85;;;6.72;;
36663;SDS011;53333;51.976;20.144;2023-07-13T07:17:07;14.20;;;6.22;;
36663;SDS011;53333;51.976;20.144;2023-07-13T07:19:41;8.23;;;6.18;;
36663;SDS011;53333;51.976;20.144;2023-07-13T07:22:14;8.23;;;5.60;;
36663;SDS011;53333;51.976;20.144;2023-07-13T07:24:50;10.77;;;7.13;;
36663;SDS011;53333;51.976;20.144;2023-07-13T07:27:23;11.15;;;6.47;;
36663;SDS011;53333;51.976;20.144;2023-07-13T07:29:59;7.30;;;5.80;;
36663;SDS011;53333;51.976;20.144;2023-07-13T07:32:37;10.32;;;6.28;;
36663;SDS011;53333;51.976;20.144;2023-07-13T07:35:27;10.00;;;6.35;;
36663;SDS011;53333;51.976;20.144;2023-07-13T07:38:06;10.77;;;6.47;;
36663;SDS011;53333;51.976;20.144;2023-07-13T07:40:42;7.93;;;6.28;;
36663;SDS011;53333;51.976;20.144;2023-07-13T07:43:18;7.72;;;6.13;;
36663;SDS011;53333;51.976;20.144;2023-07-13T07:45:52;8.95;;;6.15;;
36663;SDS011;53333;51.976;20.144;2023-07-13T07:48:26;9.30;;;6.85;;
36663;SDS011;53333;51.976;20.144;2023-07-13T07:51:00;9.70;;;6.07;;
36663;SDS011;53333;51.976;20.144;2023-07-13T07:53:35;9.10;;;6.30;;
36663;SDS011;53333;51.976;20.144;2023-07-13T07:56:08;9.93;;;5.90;;
36663;SDS011;53333;51.976;20.144;2023-07-13T07:58:45;10.63;;;6.00;;
36663;SDS011;53333;51.976;20.144;2023-07-13T08:01:23;7.45;;;6.28;;
36663;SDS011;53333;51.976;20.144;2023-07-13T08:04:01;10.05;;;5.80;;
36663;SDS011;53333;51.976;20.144;2023-07-13T08:06:37;11.55;;;6.80;;
36663;SDS011;53333;51.976;20.144;2023-07-13T08:09:16;9.50;;;6.70;;
36663;SDS011;53333;51.976;20.144;2023-07-13T08:11:53;6.82;;;6.13;;
36663;SDS011;53333;51.976;20.144;2023-07-13T08:14:30;12.45;;;6.80;;
36663;SDS011;53333;51.976;20.144;2023-07-13T08:17:21;10.73;;;6.72;;
36663;SDS011;53333;51.976;20.144;2023-07-13T08:19:56;6.78;;;6.05;;
36663;SDS011;53333;51.976;20.144;2023-07-13T08:22:29;11.00;;;7.07;;
36663;SDS011;53333;51.976;20.144;2023-07-13T08:25:03;13.88;;;7.53;;
36663;SDS011;53333;51.976;20.144;2023-07-13T08:27:37;8.35;;;6.60;;
36663;SDS011;53333;51.976;20.144;2023-07-13T08:30:10;12.35;;;7.13;;
36663;SDS011;53333;51.976;20.144;2023-07-13T08:32:43;9.85;;;6.55;;
36663;SDS011;53333;51.976;20.144;2023-07-13T08:35:18;7.90;;;6.90;;
36663;SDS011;53333;51.976;20.144;2023-07-13T08:37:52;8.43;;;6.35;;
36663;SDS011;53333;51.976;20.144;2023-07-13T08:40:25;9.57;;;6.93;;
36663;SDS011;53333;51.976;20.144;2023-07-13T08:43:00;10.40;;;7.25;;
36663;SDS011;53333;51.976;20.144;2023-07-13T08:45:36;10.82;;;7.60;;
36663;SDS011;53333;51.976;20.144;2023-07-13T08:50:54;9.93;;;6.82;;
36663;SDS011;53333;51.976;20.144;2023-07-13T08:56:21;10.02;;;6.53;;
36663;SDS011;53333;51.976;20.144;2023-07-13T08:58:58;7.88;;;6.13;;
36663;SDS011;53333;51.976;20.144;2023-07-13T09:01:46;7.85;;;6.63;;
36663;SDS011;53333;51.976;20.144;2023-07-13T09:07:14;15.75;;;8.40;;
36663;SDS011;53333;51.976;20.144;2023-07-13T09:10:00;17.02;;;9.07;;
36663;SDS011;53333;51.976;20.144;2023-07-13T09:15:23;15.70;;;8.57;;
36663;SDS011;53333;51.976;20.144;2023-07-13T09:18:04;14.05;;;9.48;;
36663;SDS011;53333;51.976;20.144;2023-07-13T09:20:43;16.35;;;11.02;;
36663;SDS011;53333;51.976;20.144;2023-07-13T09:23:20;17.83;;;9.52;;
36663;SDS011;53333;51.976;20.144;2023-07-13T09:26:00;14.07;;;8.55;;
36663;SDS011;53333;51.976;20.144;2023-07-13T09:28:38;10.15;;;8.13;;
36663;SDS011;53333;51.976;20.144;2023-07-13T09:31:13;11.55;;;8.15;;
36663;SDS011;53333;51.976;20.144;2023-07-13T09:33:50;10.40;;;7.93;;
36663;SDS011;53333;51.976;20.144;2023-07-13T09:36:24;13.05;;;8.38;;
36663;SDS011;53333;51.976;20.144;2023-07-13T09:39:03;11.77;;;7.55;;
36663;SDS011;53333;51.976;20.144;2023-07-13T09:41:45;13.35;;;7.68;;
36663;SDS011;53333;51.976;20.144;2023-07-13T09:44:27;11.95;;;7.78;;
36663;SDS011;53333;51.976;20.144;2023-07-13T09:47:03;12.05;;;8.13;;
36663;SDS011;53333;51.976;20.144;2023-07-13T09:49:48;16.30;;;8.57;;
36663;SDS011;53333;51.976;20.144;2023-07-13T09:52:38;12.75;;;8.60;;
36663;SDS011;53333;51.976;20.144;2023-07-13T09:55:24;12.10;;;9.68;;
36663;SDS011;53333;51.976;20.144;2023-07-13T09:58:02;13.65;;;9.77;;
36663;SDS011;53333;51.976;20.144;2023-07-13T10:00:37;12.30;;;9.70;;
36663;SDS011;53333;51.976;20.144;2023-07-13T10:03:16;11.98;;;9.27;;
36663;SDS011;53333;51.976;20.144;2023-07-13T10:05:52;22.85;;;12.50;;
36663;SDS011;53333;51.976;20.144;2023-07-13T10:08:27;22.33;;;15.68;;
36663;SDS011;53333;51.976;20.144;2023-07-13T10:11:08;26.38;;;17.08;;
36663;SDS011;53333;51.976;20.144;2023-07-13T10:13:44;16.52;;;11.20;;
36663;SDS011;53333;51.976;20.144;2023-07-13T10:16:20;9.85;;;7.50;;
36663;SDS011;53333;51.976;20.144;2023-07-13T10:18:55;8.20;;;6.53;;
36663;SDS011;53333;51.976;20.144;2023-07-13T10:21:32;10.40;;;7.38;;
36663;SDS011;53333;51.976;20.144;2023-07-13T10:24:11;6.80;;;6.10;;
36663;SDS011;53333;51.976;20.144;2023-07-13T10:26:53;11.20;;;5.63;;
36663;SDS011;53333;51.976;20.144;2023-07-13T10:29:32;12.18;;;5.10;;
36663;SDS011;53333;51.976;20.144;2023-07-13T10:32:11;13.48;;;6.72;;
36663;SDS011;53333;51.976;20.144;2023-07-13T10:34:46;13.52;;;9.88;;
36663;SDS011;53333;51.976;20.144;2023-07-13T10:37:22;20.00;;;15.43;;
36663;SDS011;53333;51.976;20.144;2023-07-13T10:39:57;22.15;;;16.75;;
36663;SDS011;53333;51.976;20.144;2023-07-13T10:42:33;25.77;;;19.27;;
36663;SDS011;53333;51.976;20.144;2023-07-13T10:45:13;27.90;;;19.63;;
36663;SDS011;53333;51.976;20.144;2023-07-13T10:47:48;26.58;;;20.10;;
36663;SDS011;53333;51.976;20.144;2023-07-13T10:50:25;23.30;;;20.08;;
36663;SDS011;53333;51.976;20.144;2023-07-13T10:53:02;25.60;;;20.30;;
36663;SDS011;53333;51.976;20.144;2023-07-13T10:55:58;21.75;;;18.52;;
36663;SDS011;53333;51.976;20.144;2023-07-13T10:58:34;24.38;;;20.00;;
36663;SDS011;53333;51.976;20.144;2023-07-13T11:01:10;22.90;;;19.35;;
36663;SDS011;53333;51.976;20.144;2023-07-13T11:03:47;22.60;;;19.10;;
36663;SDS011;53333;51.976;20.144;2023-07-13T11:06:29;21.38;;;18.20;;
36663;SDS011;53333;51.976;20.144;2023-07-13T11:09:30;22.67;;;17.55;;
36663;SDS011;53333;51.976;20.144;2023-07-13T11:12:10;25.45;;;17.25;;
36663;SDS011;53333;51.976;20.144;2023-07-13T11:15:11;22.50;;;17.63;;
36663;SDS011;53333;51.976;20.144;2023-07-13T11:17:49;23.35;;;17.63;;
36663;SDS011;53333;51.976;20.144;2023-07-13T11:20:33;20.15;;;17.52;;
36663;SDS011;53333;51.976;20.144;2023-07-13T11:29:20;23.58;;;16.55;;
36663;SDS011;53333;51.976;20.144;2023-07-13T11:32:01;24.88;;;16.40;;
36663;SDS011;53333;51.976;20.144;2023-07-13T11:34:54;26.50;;;17.38;;
36663;SDS011;53333;51.976;20.144;2023-07-13T11:37:27;27.95;;;19.25;;
36663;SDS011;53333;51.976;20.144;2023-07-13T11:40:03;20.50;;;16.30;;
36663;SDS011;53333;51.976;20.144;2023-07-13T11:42:38;24.80;;;18.00;;
36663;SDS011;53333;51.976;20.144;2023-07-13T11:45:20;22.58;;;17.27;;
36663;SDS011;53333;51.976;20.144;2023-07-13T11:48:20;20.33;;;16.48;;
36663;SDS011;53333;51.976;20.144;2023-07-13T11:50:56;20.42;;;15.38;;
36663;SDS011;53333;51.976;20.144;2023-07-13T11:53:34;17.58;;;13.55;;
36663;SDS011;53333;51.976;20.144;2023-07-13T11:56:12;19.60;;;13.07;;
36663;SDS011;53333;51.976;20.144;2023-07-13T11:58:48;15.30;;;13.10;;
36663;SDS011;53333;51.976;20.144;2023-07-13T12:01:24;16.63;;;13.85;;
36663;SDS011;53333;51.976;20.144;2023-07-13T12:04:02;13.63;;;12.15;;
36663;SDS011;53333;51.976;20.144;2023-07-13T12:06:37;14.57;;;13.02;;
36663;SDS011;53333;51.976;20.144;2023-07-13T12:09:14;15.90;;;13.70;;
36663;SDS011;53333;51.976;20.144;2023-07-13T12:11:48;17.48;;;13.38;;
36663;SDS011;53333;51.976;20.144;2023-07-13T12:14:21;19.23;;;12.70;;
36663;SDS011;53333;51.976;20.144;2023-07-13T12:16:56;14.65;;;13.00;;
36663;SDS011;53333;51.976;20.144;2023-07-13T12:19:32;19.48;;;12.30;;
36663;SDS011;53333;51.976;20.144;2023-07-13T12:22:08;19.88;;;14.18;;
36663;SDS011;53333;51.976;20.144;2023-07-13T12:24:45;19.70;;;14.13;;
36663;SDS011;53333;51.976;20.144;2023-07-13T12:27:20;19.77;;;14.30;;
36663;SDS011;53333;51.976;20.144;2023-07-13T12:29:57;21.33;;;15.02;;
36663;SDS011;53333;51.976;20.144;2023-07-13T12:32:31;22.45;;;15.65;;
36663;SDS011;53333;51.976;20.144;2023-07-13T12:35:13;17.95;;;15.95;;
36663;SDS011;53333;51.976;20.144;2023-07-13T12:37:48;19.35;;;14.77;;
36663;SDS011;53333;51.976;20.144;2023-07-13T12:40:26;16.27;;;13.80;;
36663;SDS011;53333;51.976;20.144;2023-07-13T12:45:54;9.13;;;6.60;;
36663;SDS011;53333;51.976;20.144;2023-07-13T12:48:28;8.13;;;6.18;;
36663;SDS011;53333;51.976;20.144;2023-07-13T12:51:20;6.15;;;5.22;;
36663;SDS011;53333;51.976;20.144;2023-07-13T12:53:56;7.88;;;4.82;;
36663;SDS011;53333;51.976;20.144;2023-07-13T12:56:37;7.75;;;4.95;;
36663;SDS011;53333;51.976;20.144;2023-07-13T13:01:49;7.38;;;4.82;;
36663;SDS011;53333;51.976;20.144;2023-07-13T13:04:23;6.47;;;3.90;;
36663;SDS011;53333;51.976;20.144;2023-07-13T13:07:05;5.85;;;4.05;;
36663;SDS011;53333;51.976;20.144;2023-07-13T13:09:42;5.97;;;4.50;;
36663;SDS011;53333;51.976;20.144;2023-07-13T13:12:14;7.25;;;4.15;;
36663;SDS011;53333;51.976;20.144;2023-07-13T13:14:48;5.63;;;3.80;;
36663;SDS011;53333;51.976;20.144;2023-07-13T13:17:22;5.60;;;3.83;;
36663;SDS011;53333;51.976;20.144;2023-07-13T13:20:00;4.88;;;3.80;;
36663;SDS011;53333;51.976;20.144;2023-07-13T13:25:08;10.32;;;4.28;;
36663;SDS011;53333;51.976;20.144;2023-07-13T13:27:42;5.15;;;4.10;;
36663;SDS011;53333;51.976;20.144;2023-07-13T13:30:17;5.03;;;4.32;;
36663;SDS011;53333;51.976;20.144;2023-07-13T13:32:50;7.10;;;5.10;;
36663;SDS011;53333;51.976;20.144;2023-07-13T13:37:59;5.53;;;3.67;;
36663;SDS011;53333;51.976;20.144;2023-07-13T13:40:32;5.75;;;3.80;;
36663;SDS011;53333;51.976;20.144;2023-07-13T13:45:48;4.60;;;3.50;;
36663;SDS011;53333;51.976;20.144;2023-07-13T13:48:25;4.13;;;3.72;;
36663;SDS011;53333;51.976;20.144;2023-07-13T13:51:06;4.15;;;3.20;;
36663;SDS011;53333;51.976;20.144;2023-07-13T13:54:04;5.97;;;4.05;;
36663;SDS011;53333;51.976;20.144;2023-07-13T13:56:38;6.85;;;4.10;;
36663;SDS011;53333;51.976;20.144;2023-07-13T14:01:45;5.07;;;4.00;;
36663;SDS011;53333;51.976;20.144;2023-07-13T14:04:21;4.50;;;4.10;;
36663;SDS011;53333;51.976;20.144;2023-07-13T14:06:55;4.03;;;3.63;;
36663;SDS011;53333;51.976;20.144;2023-07-13T14:09:30;5.50;;;4.20;;
36663;SDS011;53333;51.976;20.144;2023-07-13T14:12:04;4.28;;;3.88;;
36663;SDS011;53333;51.976;20.144;2023-07-13T14:14:39;5.35;;;3.92;;
36663;SDS011;53333;51.976;20.144;2023-07-13T14:17:17;4.28;;;3.88;;
36663;SDS011;53333;51.976;20.144;2023-07-13T14:19:55;5.93;;;4.32;;
36663;SDS011;53333;51.976;20.144;2023-07-13T14:22:29;7.68;;;4.30;;
36663;SDS011;53333;51.976;20.144;2023-07-13T14:25:04;4.80;;;4.05;;
36663;SDS011;53333;51.976;20.144;2023-07-13T14:27:38;6.90;;;4.63;;
36663;SDS011;53333;51.976;20.144;2023-07-13T14:30:14;6.15;;;4.80;;
36663;SDS011;53333;51.976;20.144;2023-07-13T14:32:48;6.28;;;4.50;;
36663;SDS011;53333;51.976;20.144;2023-07-13T14:35:21;9.63;;;4.60;;
36663;SDS011;53333;51.976;20.144;2023-07-13T14:37:56;7.57;;;4.68;;
36663;SDS011;53333;51.976;20.144;2023-07-13T14:40:30;9.38;;;4.47;;
36663;SDS011;53333;51.976;20.144;2023-07-13T14:43:04;6.00;;;3.85;;
36663;SDS011;53333;51.976;20.144;2023-07-13T14:45:39;4.63;;;4.10;;
36663;SDS011;53333;51.976;20.144;2023-07-13T14:48:15;16.67;;;11.68;;
36663;SDS011;53333;51.976;20.144;2023-07-13T14:50:50;10.25;;;6.53;;
36663;SDS011;53333;51.976;20.144;2023-07-13T14:53:28;7.85;;;4.43;;
36663;SDS011;53333;51.976;20.144;2023-07-13T14:56:04;7.00;;;4.55;;
36663;SDS011;53333;51.976;20.144;2023-07-13T14:58:43;17.48;;;8.23;;
36663;SDS011;53333;51.976;20.144;2023-07-13T15:01:16;7.60;;;4.57;;
36663;SDS011;53333;51.976;20.144;2023-07-13T15:06:23;8.15;;;5.65;;
36663;SDS011;53333;51.976;20.144;2023-07-13T15:08:56;9.10;;;5.30;;
36663;SDS011;53333;51.976;20.144;2023-07-13T15:11:31;9.52;;;5.03;;
36663;SDS011;53333;51.976;20.144;2023-07-13T15:14:04;9.23;;;4.90;;
36663;SDS011;53333;51.976;20.144;2023-07-13T15:16:37;5.50;;;4.18;;
36663;SDS011;53333;51.976;20.144;2023-07-13T15:19:10;10.07;;;4.50;;
36663;SDS011;53333;51.976;20.144;2023-07-13T15:24:18;13.68;;;4.60;;
36663;SDS011;53333;51.976;20.144;2023-07-13T15:26:53;5.30;;;4.55;;
36663;SDS011;53333;51.976;20.144;2023-07-13T15:29:26;5.57;;;4.43;;
36663;SDS011;53333;51.976;20.144;2023-07-13T15:31:59;5.65;;;4.10;;
36663;SDS011;53333;51.976;20.144;2023-07-13T15:34:32;5.20;;;4.30;;
36663;SDS011;53333;51.976;20.144;2023-07-13T15:37:07;7.28;;;4.20;;
36663;SDS011;53333;51.976;20.144;2023-07-13T15:39:46;5.38;;;4.40;;
36663;SDS011;53333;51.976;20.144;2023-07-13T15:42:20;4.90;;;4.50;;
36663;SDS011;53333;51.976;20.144;2023-07-13T15:44:55;5.97;;;4.57;;
36663;SDS011;53333;51.976;20.144;2023-07-13T15:47:29;6.57;;;5.18;;
36663;SDS011;53333;51.976;20.144;2023-07-13T15:50:03;8.25;;;5.55;;
36663;SDS011;53333;51.976;20.144;2023-07-13T15:52:36;13.35;;;8.10;;
36663;SDS011;53333;51.976;20.144;2023-07-13T15:55:13;8.30;;;5.15;;
36663;SDS011;53333;51.976;20.144;2023-07-13T15:57:48;10.20;;;6.88;;
36663;SDS011;53333;51.976;20.144;2023-07-13T16:00:24;8.27;;;6.10;;
36663;SDS011;53333;51.976;20.144;2023-07-13T16:02:59;8.60;;;5.53;;